createdAt,value
2022-08-07T00:00:25.934Z,152892.97
2022-08-07T00:02:55.951Z,152882.63
2022-08-07T00:05:24.043Z,152876.16
2022-08-07T00:08:00.089Z,152837.38
2022-08-07T00:10:30.924Z,152858.09
2022-08-07T00:13:23.562Z,152867.13
2022-08-07T00:15:50.967Z,152772.72
2022-08-07T00:18:24.303Z,152824.47
2022-08-07T00:20:54.891Z,152843.88
2022-08-07T00:23:28.471Z,152821.88
2022-08-07T00:25:59.218Z,152759.81
2022-08-07T00:28:33.734Z,152807.59
2022-08-07T00:31:04.553Z,152798.56
2022-08-07T00:33:35.625Z,152816.69
2022-08-07T00:36:04.552Z,152799.88
2022-08-07T00:38:34.964Z,152766.28
2022-08-07T00:41:05.211Z,152784.34
2022-08-07T00:44:00.198Z,152752.06
2022-08-07T00:46:26.208Z,152731.38
2022-08-07T00:48:53.987Z,152719.75
2022-08-07T00:51:21.985Z,152746.88
2022-08-07T00:53:55.332Z,152741.69
2022-08-07T00:56:30.033Z,152715.91
2022-08-07T00:58:59.467Z,152668.06
2022-08-07T01:01:27.576Z,152708.13
2022-08-07T01:04:00.052Z,152702.94
2022-08-07T01:06:29.923Z,152700.38
2022-08-07T01:09:01.130Z,152705.53
2022-08-07T01:12:24.005Z,152693.91
2022-08-07T01:14:17.640Z,152695.19
2022-08-07T01:16:50.502Z,152668.06
2022-08-07T01:19:20.015Z,152668.06
2022-08-07T01:21:53.190Z,152647.41
2022-08-07T01:24:23.752Z,152661.63
2022-08-07T01:26:52.756Z,152657.72
2022-08-07T01:29:24.030Z,152655.19
2022-08-07T01:31:59.275Z,152646.09
2022-08-07T01:34:30.904Z,152640.97
2022-08-07T01:37:01.565Z,152589.31
2022-08-07T01:39:40.736Z,152620.25
2022-08-07T01:42:39.015Z,152569.91
2022-08-07T01:45:04.584Z,152619.00
2022-08-07T01:48:19.203Z,152603.50
2022-08-07T01:50:22.666Z,152554.44
2022-08-07T01:52:59.247Z,152580.28
2022-08-07T01:55:29.643Z,152572.50
2022-08-07T01:58:06.667Z,152578.94
2022-08-07T02:01:09.984Z,152595.75
2022-08-07T02:03:53.665Z,152598.34
2022-08-07T02:06:31.879Z,152571.25
2022-08-07T02:09:05.006Z,152563.47
2022-08-07T02:12:03.704Z,152535.06
2022-08-07T02:14:35.685Z,152553.13
2022-08-07T02:17:06.056Z,152522.16
2022-08-07T02:20:04.819Z,152537.66
2022-08-07T02:22:26.209Z,152519.56
2022-08-07T02:25:00.273Z,152506.63
2022-08-07T02:27:34.226Z,152502.78
2022-08-07T02:30:07.091Z,152506.63
2022-08-07T02:32:39.427Z,152523.44
2022-08-07T02:35:12.399Z,152513.09
2022-08-07T02:37:49.767Z,152501.47
2022-08-07T02:40:30.503Z,152504.06
2022-08-07T02:43:01.608Z,152483.41
2022-08-07T02:46:01.077Z,152474.38
2022-08-07T02:48:28.269Z,152460.16
2022-08-07T02:50:58.280Z,152491.16
2022-08-07T02:53:38.228Z,152509.22
2022-08-07T02:56:17.385Z,152529.88
2022-08-07T02:58:50.776Z,152531.19
2022-08-07T03:01:35.571Z,152528.63
2022-08-07T03:04:07.212Z,152535.06
2022-08-07T03:06:38.846Z,152535.06
2022-08-07T03:09:07.675Z,152575.09
2022-08-07T03:11:52.296Z,152594.47
2022-08-07T03:14:27.847Z,152568.66
2022-08-07T03:16:56.909Z,152607.38
2022-08-07T03:19:28.976Z,152619.00
2022-08-07T03:21:57.388Z,152598.34
2022-08-07T03:24:28.060Z,152578.94
2022-08-07T03:27:03.100Z,152613.81
2022-08-07T03:29:38.618Z,152612.53
2022-08-07T03:32:14.003Z,152642.25
2022-08-07T03:34:47.497Z,152616.41
2022-08-07T03:37:32.564Z,152594.47
2022-08-07T03:40:16.378Z,152562.16
2022-08-07T03:42:46.563Z,152581.53
2022-08-07T03:45:29.466Z,152569.91
2022-08-07T03:47:59.700Z,152584.13
2022-08-07T03:50:29.235Z,152535.06
2022-08-07T03:52:59.051Z,152527.28
2022-08-07T03:55:52.905Z,152582.84
2022-08-07T03:59:05.349Z,152526.03
2022-08-07T04:01:11.260Z,152504.06
2022-08-07T04:03:49.819Z,152532.47
2022-08-07T04:06:37.050Z,152497.59
2022-08-07T04:09:06.527Z,152496.34
2022-08-07T04:12:25.208Z,152488.56
2022-08-07T04:14:38.867Z,152479.53
2022-08-07T04:17:19.810Z,152475.69
2022-08-07T04:19:52.683Z,152456.31
2022-08-07T04:22:29.393Z,152475.69
2022-08-07T04:25:00.898Z,152466.63
2022-08-07T04:27:38.135Z,152427.91
2022-08-07T04:30:21.628Z,152411.13
2022-08-07T04:33:07.347Z,152447.28
2022-08-07T04:35:36.047Z,152442.09
2022-08-07T04:38:07.928Z,152408.53
2022-08-07T04:40:36.414Z,152448.56
2022-08-07T04:43:22.117Z,152473.09
2022-08-07T04:46:25.746Z,152433.06
2022-08-07T04:49:07.470Z,152461.47
2022-08-07T04:51:56.239Z,152501.47
2022-08-07T04:54:33.407Z,152491.16
2022-08-07T04:58:16.756Z,152484.72
2022-08-07T05:00:11.477Z,152505.38
2022-08-07T05:02:49.039Z,152486.00
2022-08-07T05:05:52.085Z,152518.25
2022-08-07T05:08:19.314Z,152532.47
2022-08-07T05:11:19.552Z,152532.47
2022-08-07T05:14:53.899Z,152560.88
2022-08-07T05:16:52.514Z,152558.28
2022-08-07T05:19:44.106Z,152584.13
2022-08-07T05:22:26.677Z,152662.91
2022-08-07T05:24:59.587Z,152705.53
2022-08-07T05:28:02.726Z,152726.22
2022-08-07T05:30:30.001Z,152731.38
2022-08-07T05:33:03.358Z,152819.28
2022-08-07T05:35:41.885Z,152873.56
2022-08-07T05:38:12.452Z,152891.66
2022-08-07T05:41:01.187Z,152984.72
2022-08-07T05:43:49.906Z,153008.00
2022-08-07T05:46:18.728Z,153090.78
2022-08-07T05:48:59.175Z,153116.66
2022-08-07T05:51:31.777Z,153198.13
2022-08-07T05:54:13.023Z,153253.81
2022-08-07T05:56:51.514Z,153321.06
2022-08-07T05:59:20.858Z,153370.25
2022-08-07T06:01:51.491Z,153388.41
2022-08-07T06:04:29.785Z,153468.63
2022-08-07T06:07:04.530Z,153523.03
2022-08-07T06:10:04.547Z,153572.28
2022-08-07T06:12:27.843Z,153590.41
2022-08-07T06:15:05.595Z,153616.31
2022-08-07T06:17:38.152Z,153681.06
2022-08-07T06:20:12.796Z,153760.13
2022-08-07T06:23:02.058Z,153811.94
2022-08-07T06:25:54.484Z,153889.72
2022-08-07T06:28:27.589Z,153923.44
2022-08-07T06:30:58.348Z,153963.63
2022-08-07T06:33:27.434Z,154015.50
2022-08-07T06:36:12.082Z,154023.25
2022-08-07T06:38:58.715Z,154046.59
2022-08-07T06:42:01.198Z,154082.91
2022-08-07T06:44:30.992Z,154202.28
2022-08-07T06:47:10.104Z,154228.22
2022-08-07T06:49:51.807Z,154319.03
2022-08-07T06:52:31.957Z,154389.09
2022-08-07T06:55:33.208Z,154455.34
2022-08-07T06:58:01.635Z,154533.25
2022-08-07T07:00:35.391Z,154591.66
2022-08-07T07:03:10.888Z,154661.78
2022-08-07T07:06:05.016Z,154713.78
2022-08-07T07:08:33.563Z,154731.97
2022-08-07T07:11:13.049Z,154785.19
2022-08-07T07:14:01.273Z,154790.41
2022-08-07T07:16:45.219Z,154873.56
2022-08-07T07:19:55.100Z,154922.97
2022-08-07T07:22:32.269Z,154925.50
2022-08-07T07:25:02.898Z,155010.03
2022-08-07T07:27:55.787Z,155052.94
2022-08-07T07:30:38.377Z,155088.03
2022-08-07T07:33:11.453Z,155121.88
2022-08-07T07:35:50.657Z,155196.00
2022-08-07T07:38:31.823Z,155218.13
2022-08-07T07:41:04.277Z,155241.53
2022-08-07T07:44:13.886Z,155246.75
2022-08-07T07:46:38.576Z,155133.56
2022-08-07T07:50:33.339Z,155101.06
2022-08-07T07:52:07.938Z,155288.34
2022-08-07T07:54:38.728Z,155401.53
2022-08-07T07:57:14.049Z,155452.31
2022-08-07T07:59:52.574Z,155536.91
2022-08-07T08:02:33.949Z,155500.47
2022-08-07T08:05:05.253Z,155506.97
2022-08-07T08:07:42.366Z,155630.66
2022-08-07T08:10:38.329Z,155714.00
2022-08-07T08:13:10.371Z,155432.78
2022-08-07T08:15:59.027Z,155440.59
2022-08-07T08:18:30.024Z,155671.00
2022-08-07T08:21:03.871Z,155608.50
2022-08-07T08:23:54.489Z,155690.56
2022-08-07T08:26:50.275Z,155845.53
2022-08-07T08:29:19.971Z,155926.31
2022-08-07T08:31:58.969Z,155887.22
2022-08-07T08:34:42.105Z,155725.72
2022-08-07T08:38:00.605Z,155862.50
2022-08-07T08:40:04.345Z,155647.59
2022-08-07T08:42:44.480Z,155803.84
2022-08-07T08:45:19.552Z,155790.78
2022-08-07T08:48:03.136Z,155927.59
2022-08-07T08:50:40.003Z,156056.63
2022-08-07T08:53:19.281Z,155973.22
2022-08-07T08:55:53.267Z,156107.47
2022-08-07T08:58:35.908Z,156124.38
2022-08-07T09:01:15.207Z,156064.44
2022-08-07T09:04:01.025Z,156008.38
2022-08-07T09:06:38.513Z,156077.47
2022-08-07T09:09:29.912Z,156189.56
2022-08-07T09:12:30.509Z,156261.28
2022-08-07T09:16:21.761Z,156269.13
2022-08-07T09:18:16.938Z,156338.22
2022-08-07T09:21:00.813Z,156385.16
2022-08-07T09:24:30.793Z,156163.50
2022-08-07T09:26:34.671Z,156278.25
2022-08-07T09:30:05.237Z,156228.69
2022-08-07T09:32:17.282Z,156151.75
2022-08-07T09:35:00.046Z,156395.56
2022-08-07T09:37:54.120Z,156483.00
2022-08-07T09:40:27.959Z,156476.50
2022-08-07T09:43:08.202Z,156507.81
2022-08-07T09:47:50.442Z,156613.50
2022-08-07T09:48:50.212Z,156663.09
2022-08-07T09:52:09.928Z,156787.09
2022-08-07T09:54:45.246Z,156805.34
2022-08-07T09:57:51.107Z,156847.13
2022-08-07T10:00:29.910Z,156849.75
2022-08-07T10:04:05.660Z,156921.53
2022-08-07T10:06:30.481Z,156703.53
2022-08-07T10:09:58.903Z,156813.19
2022-08-07T10:12:53.107Z,156760.97
2022-08-07T10:15:44.675Z,156828.84
2022-08-07T10:18:26.811Z,156587.41
2022-08-07T10:21:19.530Z,156828.84
2022-08-07T10:24:21.527Z,156661.75
2022-08-07T10:27:10.208Z,156640.88
2022-08-07T10:30:12.347Z,156261.28
2022-08-07T10:33:16.051Z,156331.69
2022-08-07T10:36:11.307Z,156103.53
2022-08-07T10:38:52.846Z,156518.22
2022-08-07T10:41:47.169Z,156672.22
2022-08-07T10:44:37.375Z,156740.06
2022-08-07T10:47:27.018Z,156796.22
2022-08-07T10:50:07.041Z,156981.66
2022-08-07T10:52:51.199Z,156840.59
2022-08-07T10:55:38.062Z,156766.22
2022-08-07T10:58:33.080Z,156878.44
2022-08-07T11:01:22.357Z,156817.09
2022-08-07T11:04:23.136Z,156901.94
2022-08-07T11:06:59.581Z,156911.09
2022-08-07T11:10:09.400Z,156823.66
2022-08-07T11:12:32.257Z,156956.81
2022-08-07T11:15:09.687Z,157137.09
2022-08-07T11:17:49.384Z,156928.03
2022-08-07T11:20:24.498Z,156929.38
2022-08-07T11:22:59.369Z,156398.19
2022-08-07T11:25:36.265Z,156276.94
2022-08-07T11:28:16.711Z,156586.09
2022-08-07T11:30:55.807Z,156729.66
2022-08-07T11:33:53.541Z,156387.78
2022-08-07T11:36:40.716Z,156669.59
2022-08-07T11:39:23.672Z,156729.66
2022-08-07T11:42:02.884Z,156733.53
2022-08-07T11:44:52.391Z,156798.81
2022-08-07T11:47:55.846Z,156860.19
2022-08-07T11:50:57.649Z,156664.38
2022-08-07T11:53:43.078Z,156715.28
2022-08-07T11:56:43.263Z,156938.56
2022-08-07T12:00:12.652Z,157015.56
2022-08-07T12:02:31.797Z,157157.97
2022-08-07T12:05:28.841Z,157297.81
2022-08-07T12:08:25.784Z,157235.03
2022-08-07T12:11:20.366Z,157282.09
2022-08-07T12:13:55.399Z,157291.25
2022-08-07T12:16:30.375Z,157245.50
2022-08-07T12:19:14.805Z,157275.59
2022-08-07T12:22:39.523Z,157249.41
2022-08-07T12:26:00.818Z,157198.47
2022-08-07T12:28:10.283Z,157292.59
2022-08-07T12:30:46.587Z,157014.28
2022-08-07T12:33:23.301Z,157220.66
2022-08-07T12:35:58.439Z,157189.34
2022-08-07T12:38:42.645Z,157424.59
2022-08-07T12:41:12.969Z,157301.72
2022-08-07T12:44:03.525Z,157269.06
2022-08-07T12:46:46.253Z,157184.09
2022-08-07T12:49:39.663Z,157211.53
2022-08-07T12:52:17.904Z,157287.34
2022-08-07T12:54:54.591Z,157312.19
2022-08-07T12:57:39.045Z,157269.06
2022-08-07T13:00:31.339Z,157218.03
2022-08-07T13:03:27.050Z,157147.50
2022-08-07T13:06:26.885Z,157313.47
2022-08-07T13:09:33.426Z,157317.38
2022-08-07T13:12:03.168Z,157482.13
2022-08-07T13:14:51.532Z,157483.41
2022-08-07T13:17:40.739Z,157517.41
2022-08-07T13:20:17.010Z,157642.94
2022-08-07T13:22:52.764Z,157606.31
2022-08-07T13:25:30.712Z,157639.00
2022-08-07T13:28:11.300Z,157501.69
2022-08-07T13:30:52.147Z,157022.13
2022-08-07T13:34:32.138Z,157322.63
2022-08-07T13:36:25.846Z,157304.34
2022-08-07T13:39:02.404Z,157397.13
2022-08-07T13:41:42.203Z,157320.00
2022-08-07T13:44:13.105Z,157265.16
2022-08-07T13:46:49.379Z,157254.63
2022-08-07T13:50:32.658Z,157351.38
2022-08-07T13:52:31.614Z,157291.25
2022-08-07T13:54:58.643Z,157316.09
2022-08-07T13:57:38.102Z,157279.50
2022-08-07T14:00:13.552Z,157453.34
2022-08-07T14:02:57.412Z,157446.84
2022-08-07T14:05:29.019Z,157369.66
2022-08-07T14:08:08.747Z,157367.03
2022-08-07T14:10:42.450Z,157326.56
2022-08-07T14:13:16.875Z,157176.25
2022-08-07T14:15:52.878Z,157267.72
2022-08-07T14:18:30.679Z,157463.78
2022-08-07T14:21:08.147Z,157518.69
2022-08-07T14:24:00.351Z,157570.97
2022-08-07T14:26:37.134Z,157563.13
2022-08-07T14:30:05.482Z,157492.53
2022-08-07T14:32:02.239Z,157293.88
2022-08-07T14:34:32.769Z,157355.28
2022-08-07T14:37:04.609Z,157393.16
2022-08-07T14:40:18.044Z,157314.75
2022-08-07T14:42:32.326Z,157431.13
2022-08-07T14:47:58.508Z,157259.88
2022-08-07T14:50:27.997Z,157450.75
2022-08-07T14:55:56.080Z,157063.91
2022-08-07T14:58:33.390Z,157288.69
2022-08-07T15:01:21.319Z,157299.09
2022-08-07T15:03:52.874Z,156835.41
2022-08-07T15:06:26.224Z,157019.53
2022-08-07T15:08:56.438Z,157280.81
2022-08-07T15:11:48.743Z,157326.56
2022-08-07T15:14:25.346Z,157212.84
2022-08-07T15:17:01.896Z,157065.19
2022-08-07T15:20:23.644Z,157100.50
2022-08-07T15:22:31.400Z,157194.53
2022-08-07T15:28:32.858Z,157150.13
2022-08-07T15:30:59.537Z,157116.19
2022-08-07T15:33:36.003Z,157096.53
2022-08-07T15:36:07.704Z,157114.88
2022-08-07T15:42:44.621Z,156915.00
2022-08-07T15:44:23.755Z,157016.91
2022-08-07T15:46:58.506Z,156971.19
2022-08-07T15:52:30.781Z,157015.56
2022-08-07T15:55:02.683Z,156951.59
2022-08-07T15:57:39.777Z,156954.19
2022-08-07T16:00:31.115Z,156792.31
2022-08-07T16:03:04.863Z,156811.91
2022-08-07T16:05:34.320Z,156753.13
2022-08-07T16:08:31.705Z,156721.81
2022-08-07T16:11:02.662Z,156644.84
2022-08-07T16:14:07.040Z,156785.81
2022-08-07T16:16:57.186Z,156758.31
2022-08-07T16:19:59.764Z,156755.69
2022-08-07T16:22:55.396Z,156678.72
2022-08-07T16:25:55.006Z,156698.31
2022-08-07T16:29:18.426Z,156600.44
2022-08-07T16:31:50.087Z,156635.66
2022-08-07T16:34:40.352Z,156625.25
2022-08-07T16:38:06.364Z,156608.28
2022-08-07T16:41:02.288Z,156592.63
2022-08-07T16:44:05.865Z,156569.09
2022-08-07T16:47:16.678Z,156532.56
2022-08-07T16:50:35.829Z,156507.81
2022-08-07T16:54:01.693Z,156441.28
2022-08-07T16:56:20.931Z,156403.41
2022-08-07T16:59:11.316Z,156385.16
2022-08-07T17:02:02.876Z,156400.78
2022-08-07T17:04:57.792Z,156382.56
2022-08-07T17:07:51.517Z,156327.78
2022-08-07T17:10:33.381Z,156330.41
2022-08-07T17:13:20.258Z,156306.94
2022-08-07T17:15:55.151Z,156318.66
2022-08-07T17:18:31.453Z,156284.75
2022-08-07T17:20:59.807Z,156273.00
2022-08-07T17:23:52.750Z,156246.94
2022-08-07T17:26:30.579Z,156250.88
2022-08-07T17:30:13.102Z,156263.88
2022-08-07T17:32:06.672Z,156228.69
2022-08-07T17:34:57.127Z,156228.69
2022-08-07T17:38:05.803Z,156207.81
2022-08-07T17:40:30.462Z,156149.16
2022-08-07T17:43:18.147Z,156145.25
2022-08-07T17:46:00.069Z,156106.13
2022-08-07T17:48:34.473Z,156121.81
2022-08-07T17:51:12.759Z,156082.69
2022-08-07T17:54:02.089Z,156069.69
2022-08-07T17:56:49.323Z,156054.00
2022-08-07T17:59:24.111Z,156022.72
2022-08-07T18:01:58.884Z,156020.13
2022-08-07T18:04:34.466Z,156003.16
2022-08-07T18:07:20.841Z,155973.22
2022-08-07T18:10:05.578Z,155960.16
2022-08-07T18:12:49.455Z,155939.31
2022-08-07T18:15:23.916Z,155930.22
2022-08-07T18:21:02.474Z,155945.81
2022-08-07T18:21:30.072Z,155902.88
2022-08-07T18:24:02.010Z,155882.00
2022-08-07T18:27:07.100Z,155837.72
2022-08-07T18:30:06.279Z,155805.13
2022-08-07T18:32:56.032Z,155807.72
2022-08-07T18:35:51.550Z,155798.63
2022-08-07T18:38:56.457Z,155767.34
2022-08-07T18:41:20.823Z,155751.75
2022-08-07T18:43:58.916Z,155738.69
2022-08-07T18:46:43.114Z,155703.56
2022-08-07T18:50:05.934Z,155700.94
2022-08-07T18:52:52.772Z,155682.72
2022-08-07T18:55:40.875Z,155638.47
2022-08-07T18:58:26.465Z,155547.31
2022-08-07T19:01:06.741Z,155527.78
2022-08-07T19:03:45.596Z,155478.34
2022-08-07T19:06:21.555Z,155460.13
2022-08-07T19:09:54.869Z,155393.72
2022-08-07T19:12:15.477Z,155343.00
2022-08-07T19:15:00.783Z,155328.69
2022-08-07T19:17:55.945Z,155276.66
2022-08-07T19:20:39.715Z,155259.72
2022-08-07T19:23:57.983Z,155211.63
2022-08-07T19:26:29.020Z,155153.09
2022-08-07T19:30:58.632Z,155080.28
2022-08-07T19:32:08.035Z,155080.28
2022-08-07T19:34:47.725Z,155059.44
2022-08-07T19:37:20.212Z,155004.88
2022-08-07T19:40:02.054Z,154984.09
2022-08-07T19:42:33.639Z,154955.47
2022-08-07T19:46:05.615Z,154939.81
2022-08-07T19:48:03.410Z,154906.06
2022-08-07T19:50:43.193Z,154870.97
2022-08-07T19:54:44.022Z,154805.97
2022-08-07T19:56:12.139Z,154776.13
2022-08-07T19:58:53.185Z,154729.34
2022-08-07T20:01:23.136Z,154679.94
2022-08-07T20:04:11.430Z,154651.38
2022-08-07T20:06:59.277Z,154605.94
2022-08-07T20:10:33.906Z,154570.91
2022-08-07T20:12:34.634Z,154539.72
2022-08-07T20:15:15.564Z,154548.81
2022-08-07T20:18:01.581Z,154504.69
2022-08-07T20:20:32.837Z,154459.22
2022-08-07T20:23:23.296Z,154443.63
2022-08-07T20:25:56.615Z,154404.66
2022-08-07T20:28:29.979Z,154392.97
2022-08-07T20:31:00.247Z,154409.84
2022-08-07T20:33:38.307Z,154359.25
2022-08-07T20:36:09.793Z,154347.59
2022-08-07T20:38:59.542Z,154312.53
2022-08-07T20:41:33.962Z,154261.91
2022-08-07T20:44:12.312Z,154274.91
2022-08-07T20:46:44.367Z,154254.16
2022-08-07T20:49:58.517Z,154248.97
2022-08-07T20:52:16.721Z,154216.56
2022-08-07T20:54:53.371Z,154206.16
2022-08-07T20:57:25.975Z,154181.53
2022-08-07T21:00:07.108Z,154193.19
2022-08-07T21:02:57.889Z,154193.19
2022-08-07T21:05:51.198Z,154160.72
2022-08-07T21:08:36.798Z,154142.53
2022-08-07T21:11:10.851Z,154114.06
2022-08-07T21:14:16.370Z,154137.38
2022-08-07T21:16:55.971Z,154123.13
2022-08-07T21:19:32.362Z,154080.31
2022-08-07T21:22:19.534Z,154107.53
2022-08-07T21:25:04.685Z,154101.06
2022-08-07T21:27:53.838Z,154072.53
2022-08-07T21:30:30.363Z,154041.44
2022-08-07T21:33:08.031Z,154053.09
2022-08-07T21:36:04.824Z,154029.72
2022-08-07T21:38:31.480Z,154014.16
2022-08-07T21:41:10.135Z,153971.38
2022-08-07T21:43:56.515Z,153993.44
2022-08-07T21:46:32.985Z,153981.78
2022-08-07T21:49:14.932Z,153957.16
2022-08-07T21:51:54.820Z,153957.16
2022-08-07T21:54:39.110Z,153954.56
2022-08-07T21:57:31.098Z,153964.91
2022-08-07T22:00:22.868Z,153946.78
2022-08-07T22:03:05.578Z,153898.78
2022-08-07T22:05:45.841Z,153905.31
2022-08-07T22:08:18.580Z,153857.28
2022-08-07T22:10:50.804Z,153878.00
2022-08-07T22:13:24.348Z,153862.47
2022-08-07T22:16:43.042Z,153819.69
2022-08-07T22:19:20.088Z,153805.44
2022-08-07T22:22:01.960Z,153789.91
2022-08-07T22:24:37.763Z,153793.78
2022-08-07T22:27:15.997Z,153775.66
2022-08-07T22:29:50.368Z,153717.34
2022-08-07T22:32:28.727Z,153726.41
2022-08-07T22:35:00.901Z,153670.72
2022-08-07T22:38:04.190Z,153674.59
2022-08-07T22:40:37.068Z,153640.94
2022-08-07T22:43:09.973Z,153647.41
2022-08-07T22:46:21.789Z,153612.44
2022-08-07T22:49:01.473Z,153653.88
2022-08-07T22:51:51.986Z,153655.19
2022-08-07T22:54:54.178Z,153648.69
2022-08-07T22:57:43.112Z,153627.97
2022-08-07T23:00:17.657Z,153596.88
2022-08-07T23:03:03.748Z,153600.78
2022-08-07T23:06:09.488Z,153589.13
2022-08-07T23:10:00.732Z,153585.22
2022-08-07T23:12:32.653Z,153545.06
2022-08-07T23:16:04.572Z,153542.47
2022-08-07T23:18:27.808Z,153538.56
2022-08-07T23:21:30.072Z,153523.03
2022-08-07T23:24:29.510Z,153488.06
2022-08-07T23:27:17.912Z,153494.53
2022-08-07T23:30:39.456Z,153530.81
2022-08-07T23:34:33.672Z,153490.66
2022-08-07T23:36:17.456Z,153462.19
2022-08-07T23:38:59.941Z,153442.75
2022-08-07T23:42:04.783Z,153451.81
2022-08-07T23:44:55.381Z,153486.81
2022-08-07T23:47:47.911Z,153447.94
2022-08-07T23:50:43.564Z,153435.00
2022-08-07T23:53:50.859Z,153409.13
